Time;durP1;ratioP1;P1;durP2;ratioP2;P2;SDS_P1;SDS_P2;PMS_P1;PMS_P2;Temp;Humidity;BMP_temperature;BMP_pressure;BME280_temperature;BME280_humidity;BME280_pressure;Samples;Min_cycle;Max_cycle;Signal;HPM_P1;HPM_P2
2023/05/06 00:00:21;;;;;;;;;;;15.00;85.60;;;;;;4983257;28;19930;-66
2023/05/06 00:02:47;;;;;;;;;;;15.10;85.30;;;;;;4980434;28;19925;-69
2023/05/06 00:05:17;;;;;;;;;;;15.10;85.40;;;;;;4983876;28;19926;-69
2023/05/06 00:07:44;;;;;;;;;;;15.10;85.20;;;;;;4981858;28;19927;-79
2023/05/06 00:10:10;;;;;;;;;;;15.10;85.10;;;;;;4982375;28;19936;-76
2023/05/06 00:12:37;;;;;;;;;;;15.10;85.20;;;;;;4964188;28;19936;-78
2023/05/06 00:15:04;;;;;;;;;;;15.00;85.30;;;;;;4987117;28;19933;-78
2023/05/06 00:17:31;;;;;;;;;;;15.00;85.40;;;;;;4987567;28;20011;-78
2023/05/06 00:19:58;;;;;;;;;;;14.90;85.50;;;;;;4983783;28;19964;-77
2023/05/06 00:22:26;;;;;;;;;;;14.90;85.50;;;;;;4986713;28;19934;-77
2023/05/06 00:24:53;;;;;;;;;;;14.90;85.30;;;;;;4984922;28;19944;-77
2023/05/06 00:27:19;;;;;;;;;;;14.90;85.30;;;;;;4982815;28;19934;-78
2023/05/06 00:29:46;;;;;;;;;;;14.90;85.30;;;;;;4986549;28;19957;-78
2023/05/06 00:32:13;;;;;;;;;;;14.90;85.40;;;;;;4986830;28;19980;-78
2023/05/06 00:34:40;;;;;;;;;;;14.90;85.60;;;;;;4986181;28;19953;-78
2023/05/06 00:37:07;;;;;;;;;;;14.90;85.60;;;;;;4986113;28;20013;-78
2023/05/06 00:39:35;;;;;;;;;;;14.90;85.70;;;;;;4981728;28;19945;-79
2023/05/06 00:42:02;;;;;;;;;;;14.80;85.70;;;;;;4967593;28;20328;-79
2023/05/06 00:44:29;;;;;;;;;;;14.70;85.70;;;;;;4987828;28;19964;-78
2023/05/06 00:46:55;;;;;;;;;;;14.70;85.70;;;;;;4981927;28;20316;-79
2023/05/06 00:49:23;;;;;;;;;;;14.70;85.70;;;;;;4979677;28;20017;-62
2023/05/06 00:51:50;;;;;;;;;;;14.60;85.80;;;;;;4983053;28;19926;-63
2023/05/06 00:54:17;;;;;;;;;;;14.60;85.90;;;;;;4981824;28;19929;-62
2023/05/06 00:56:45;;;;;;;;;;;14.60;85.80;;;;;;4984078;28;19929;-64
2023/05/06 00:59:12;;;;;;;;;;;14.60;85.80;;;;;;4983672;28;20277;-62
2023/05/06 01:01:39;;;;;;;;;;;14.60;85.80;;;;;;4981577;28;19926;-63
2023/05/06 01:04:06;;;;;;;;;;;14.60;85.60;;;;;;4982268;28;19929;-69
2023/05/06 01:06:36;;;;;;;;;;;14.60;85.50;;;;;;4982982;28;19925;-66
2023/05/06 01:09:07;;;;;;;;;;;14.60;85.50;;;;;;4980435;28;19970;-69
2023/05/06 01:11:38;;;;;;;;;;;14.60;85.50;;;;;;4983084;28;19926;-67
2023/05/06 01:14:08;;;;;;;;;;;14.60;85.50;;;;;;4982348;28;19937;-63
2023/05/06 01:16:38;;;;;;;;;;;14.60;85.50;;;;;;4981442;28;19933;-62
2023/05/06 01:19:05;;;;;;;;;;;14.50;85.40;;;;;;4982282;28;19937;-68
2023/05/06 01:21:34;;;;;;;;;;;14.50;85.40;;;;;;4980987;28;19934;-68
2023/05/06 01:24:02;;;;;;;;;;;14.40;85.30;;;;;;4981557;28;19937;-68
2023/05/06 01:26:29;;;;;;;;;;;14.40;85.20;;;;;;4982670;28;19937;-68
2023/05/06 01:28:56;;;;;;;;;;;14.40;85.30;;;;;;4983002;28;19930;-69
2023/05/06 01:31:25;;;;;;;;;;;14.30;85.40;;;;;;4981626;28;20299;-70
2023/05/06 01:33:58;;;;;;;;;;;14.30;85.50;;;;;;4980255;28;19926;-69
2023/05/06 01:36:28;;;;;;;;;;;14.30;85.70;;;;;;4980397;28;20441;-69
2023/05/06 01:38:59;;;;;;;;;;;14.30;86.20;;;;;;4979560;28;19981;-69
2023/05/06 01:41:27;;;;;;;;;;;14.20;86.70;;;;;;4983223;28;20001;-69
2023/05/06 01:43:54;;;;;;;;;;;14.20;87.00;;;;;;4981680;28;19930;-67
2023/05/06 01:46:22;;;;;;;;;;;14.20;87.00;;;;;;4983289;28;19934;-67
2023/05/06 01:48:50;;;;;;;;;;;14.30;86.70;;;;;;4983586;28;19930;-64
2023/05/06 01:51:16;;;;;;;;;;;14.40;86.60;;;;;;4981068;28;19952;-64
2023/05/06 01:53:43;;;;;;;;;;;14.40;86.40;;;;;;4964917;28;19942;-63
2023/05/06 01:56:10;;;;;;;;;;;14.30;86.60;;;;;;4982654;28;19926;-64
2023/05/06 01:58:39;;;;;;;;;;;14.30;86.60;;;;;;4965855;28;20331;-61
2023/05/06 02:01:06;;;;;;;;;;;14.30;86.50;;;;;;4980544;28;20032;-61
2023/05/06 02:03:33;;;;;;;;;;;14.20;86.60;;;;;;4981253;28;20353;-76
2023/05/06 02:06:00;;;;;;;;;;;14.20;86.50;;;;;;4970838;28;19930;-77
2023/05/06 02:08:29;;;;;;;;;;;14.10;86.30;;;;;;4970879;28;19937;-67
2023/05/06 02:10:56;;;;;;;;;;;14.10;86.00;;;;;;4967467;28;19930;-66
2023/05/06 02:13:23;;;;;;;;;;;14.10;86.00;;;;;;4965139;28;20012;-67
2023/05/06 02:15:53;;;;;;;;;;;14.10;85.70;;;;;;4985938;28;19957;-66
2023/05/06 02:18:21;;;;;;;;;;;14.00;85.50;;;;;;4967908;28;20388;-67
2023/05/06 02:20:48;;;;;;;;;;;14.00;85.40;;;;;;4967504;28;19926;-67
2023/05/06 02:23:16;;;;;;;;;;;13.90;85.30;;;;;;4968240;28;19930;-61
2023/05/06 02:25:42;;;;;;;;;;;13.90;85.20;;;;;;4985974;28;20749;-61
2023/05/06 02:28:09;;;;;;;;;;;13.80;85.20;;;;;;4963708;28;19926;-61
2023/05/06 02:30:36;;;;;;;;;;;13.80;85.30;;;;;;4985466;28;21748;-62
2023/05/06 02:33:04;;;;;;;;;;;13.70;85.20;;;;;;4965731;28;19933;-68
2023/05/06 02:35:31;;;;;;;;;;;13.70;85.30;;;;;;4985597;28;20379;-68
2023/05/06 02:37:57;;;;;;;;;;;13.70;85.20;;;;;;4985151;28;20407;-68
2023/05/06 02:40:24;;;;;;;;;;;13.70;85.20;;;;;;4984441;28;19926;-68
2023/05/06 02:42:51;;;;;;;;;;;13.70;85.30;;;;;;4981314;28;19933;-62
2023/05/06 02:45:18;;;;;;;;;;;13.60;85.40;;;;;;4984739;28;19957;-62
2023/05/06 02:47:44;;;;;;;;;;;13.60;85.30;;;;;;4963597;28;19937;-63
2023/05/06 02:50:12;;;;;;;;;;;13.60;85.30;;;;;;4984761;28;20032;-62
2023/05/06 02:52:39;;;;;;;;;;;13.60;85.30;;;;;;4964299;28;20016;-63
2023/05/06 02:55:06;;;;;;;;;;;13.60;85.40;;;;;;4984734;28;20277;-62
2023/05/06 02:57:33;;;;;;;;;;;13.60;85.40;;;;;;4983806;28;19933;-63
2023/05/06 03:00:00;;;;;;;;;;;13.60;85.50;;;;;;4969033;28;19926;-62
2023/05/06 03:02:26;;;;;;;;;;;13.60;85.60;;;;;;4966805;28;19934;-63
2023/05/06 03:04:53;;;;;;;;;;;13.50;85.60;;;;;;4985376;28;19926;-62
2023/05/06 03:07:21;;;;;;;;;;;13.50;85.80;;;;;;4967520;28;20060;-63
2023/05/06 03:09:48;;;;;;;;;;;13.50;85.70;;;;;;4966158;28;20381;-62
2023/05/06 03:12:17;;;;;;;;;;;13.60;85.70;;;;;;4983050;28;21368;-61
2023/05/06 03:14:44;;;;;;;;;;;13.60;85.70;;;;;;4964819;28;19996;-62
2023/05/06 03:17:11;;;;;;;;;;;13.50;85.80;;;;;;4966601;28;19933;-62
2023/05/06 03:19:38;;;;;;;;;;;13.50;85.80;;;;;;4985943;28;19940;-62
2023/05/06 03:22:06;;;;;;;;;;;13.50;85.70;;;;;;4966732;28;19930;-62
2023/05/06 03:24:37;;;;;;;;;;;13.40;85.80;;;;;;4966121;28;19936;-63
2023/05/06 03:27:06;;;;;;;;;;;13.30;86.00;;;;;;4977174;28;19934;-62
2023/05/06 03:29:33;;;;;;;;;;;13.20;86.10;;;;;;4970548;28;20368;-78
2023/05/06 03:32:02;;;;;;;;;;;13.20;86.00;;;;;;4968619;28;19926;-79
2023/05/06 03:34:29;;;;;;;;;;;13.20;86.00;;;;;;4969579;28;19933;-63
2023/05/06 03:36:57;;;;;;;;;;;13.20;86.00;;;;;;4967739;28;19957;-62
2023/05/06 03:39:25;;;;;;;;;;;13.20;86.20;;;;;;4984487;28;19932;-62
2023/05/06 03:41:54;;;;;;;;;;;13.20;86.50;;;;;;4966261;28;19960;-62
2023/05/06 03:44:20;;;;;;;;;;;13.20;86.70;;;;;;4984281;28;19937;-66
2023/05/06 03:46:47;;;;;;;;;;;13.20;86.80;;;;;;4980008;28;19970;-66
2023/05/06 03:49:14;;;;;;;;;;;13.20;86.90;;;;;;4966530;28;19936;-67
2023/05/06 03:51:42;;;;;;;;;;;13.20;86.80;;;;;;4966138;28;20049;-68
2023/05/06 03:54:09;;;;;;;;;;;13.10;86.80;;;;;;4966175;28;19947;-75
2023/05/06 03:56:36;;;;;;;;;;;13.10;86.90;;;;;;4966700;28;19961;-74
2023/05/06 03:59:05;;;;;;;;;;;13.10;87.00;;;;;;4967601;28;19957;-65
2023/05/06 04:01:31;;;;;;;;;;;13.10;87.00;;;;;;4964679;28;19934;-65
2023/05/06 04:03:59;;;;;;;;;;;13.10;87.00;;;;;;4981636;28;20021;-63
2023/05/06 04:06:26;;;;;;;;;;;13.10;87.00;;;;;;4982449;28;19930;-62
2023/05/06 04:08:53;;;;;;;;;;;13.10;87.00;;;;;;4965079;28;19930;-64
2023/05/06 04:11:20;;;;;;;;;;;13.10;86.90;;;;;;4982301;28;19968;-61
2023/05/06 04:13:48;;;;;;;;;;;13.10;87.00;;;;;;4962794;28;20016;-62
2023/05/06 04:16:19;;;;;;;;;;;13.10;87.10;;;;;;4964700;28;20021;-62
2023/05/06 04:18:46;;;;;;;;;;;13.10;87.10;;;;;;4984270;28;19934;-79
2023/05/06 04:21:17;;;;;;;;;;;13.10;87.20;;;;;;4968166;28;19934;-78
2023/05/06 04:23:48;;;;;;;;;;;13.10;87.10;;;;;;4984809;28;20451;-78
2023/05/06 04:26:19;;;;;;;;;;;13.10;87.00;;;;;;4985844;28;19926;-78
2023/05/06 04:28:47;;;;;;;;;;;13.20;86.90;;;;;;4967310;28;19977;-78
2023/05/06 04:31:14;;;;;;;;;;;13.10;87.00;;;;;;4967105;28;19965;-78
2023/05/06 04:33:46;;;;;;;;;;;13.10;87.00;;;;;;4986351;28;20410;-77
2023/05/06 04:36:20;;;;;;;;;;;13.10;87.10;;;;;;4985850;28;20376;-78
2023/05/06 04:39:07;;;;;;;;;;;13.10;87.10;;;;;;4983804;28;19930;-66
2023/05/06 04:41:34;;;;;;;;;;;13.10;87.10;;;;;;4965920;28;19930;-67
2023/05/06 04:44:02;;;;;;;;;;;13.10;87.00;;;;;;4982746;28;19926;-68
2023/05/06 04:46:29;;;;;;;;;;;13.10;87.00;;;;;;4963000;28;19930;-66
2023/05/06 04:48:58;;;;;;;;;;;13.10;87.10;;;;;;4966707;28;19926;-66
2023/05/06 04:51:25;;;;;;;;;;;13.10;87.20;;;;;;4964513;28;20017;-67
2023/05/06 04:53:52;;;;;;;;;;;13.00;87.30;;;;;;4965787;28;20001;-67
2023/05/06 04:56:20;;;;;;;;;;;13.10;87.30;;;;;;4983463;28;19941;-67
2023/05/06 04:58:49;;;;;;;;;;;13.10;87.30;;;;;;4966758;28;20308;-67
2023/05/06 05:01:15;;;;;;;;;;;13.10;87.50;;;;;;4967467;28;20024;-67
2023/05/06 05:03:42;;;;;;;;;;;13.10;87.40;;;;;;4980950;28;19930;-67
2023/05/06 05:06:12;;;;;;;;;;;13.10;87.40;;;;;;4964130;28;20048;-67
2023/05/06 05:08:38;;;;;;;;;;;13.20;87.20;;;;;;4982321;28;19930;-67
2023/05/06 05:11:06;;;;;;;;;;;13.20;87.30;;;;;;4966318;28;19981;-67
2023/05/06 05:13:34;;;;;;;;;;;13.20;87.30;;;;;;4966378;28;19934;-65
2023/05/06 05:16:02;;;;;;;;;;;13.30;87.30;;;;;;4962350;28;20420;-66
2023/05/06 05:18:32;;;;;;;;;;;13.30;87.30;;;;;;4965682;28;19984;-66
2023/05/06 05:21:05;;;;;;;;;;;13.30;87.10;;;;;;4964194;28;19941;-67
2023/05/06 05:23:36;;;;;;;;;;;13.30;87.00;;;;;;4963738;28;19937;-66
2023/05/06 05:26:03;;;;;;;;;;;13.40;87.10;;;;;;4978354;28;19972;-66
2023/05/06 05:28:31;;;;;;;;;;;13.40;87.00;;;;;;4983817;28;20017;-66
2023/05/06 05:31:01;;;;;;;;;;;13.50;87.10;;;;;;4964974;28;20748;-66
2023/05/06 05:33:28;;;;;;;;;;;13.50;87.00;;;;;;4980269;28;19957;-66
2023/05/06 05:35:55;;;;;;;;;;;13.50;87.00;;;;;;4967169;28;19926;-66
2023/05/06 05:38:22;;;;;;;;;;;13.50;87.10;;;;;;4966465;28;19926;-66
2023/05/06 05:40:50;;;;;;;;;;;13.50;87.10;;;;;;4970007;28;20020;-66
2023/05/06 05:43:18;;;;;;;;;;;13.50;87.10;;;;;;4986826;28;19958;-79
2023/05/06 05:45:45;;;;;;;;;;;13.50;87.20;;;;;;4989234;28;20392;-78
2023/05/06 05:48:12;;;;;;;;;;;13.50;87.20;;;;;;4970621;28;20428;-67
2023/05/06 05:50:39;;;;;;;;;;;13.50;87.30;;;;;;4986656;28;19926;-66
2023/05/06 05:53:06;;;;;;;;;;;13.60;87.10;;;;;;4982477;28;19973;-66
2023/05/06 05:55:35;;;;;;;;;;;13.60;87.00;;;;;;4968654;28;20309;-66
2023/05/06 05:58:03;;;;;;;;;;;13.60;87.10;;;;;;4969375;28;20465;-75
2023/05/06 06:00:32;;;;;;;;;;;13.60;87.10;;;;;;4967626;28;20389;-74
2023/05/06 06:03:06;;;;;;;;;;;13.60;86.90;;;;;;4968225;28;20392;-65
2023/05/06 06:05:32;;;;;;;;;;;13.70;86.90;;;;;;4968953;28;19925;-66
2023/05/06 06:07:59;;;;;;;;;;;13.70;87.00;;;;;;4987400;28;19929;-79
2023/05/06 06:10:27;;;;;;;;;;;13.70;87.00;;;;;;4986749;28;20045;-78
2023/05/06 06:12:54;;;;;;;;;;;13.80;87.10;;;;;;4985531;28;19938;-78
2023/05/06 06:15:26;;;;;;;;;;;13.80;87.10;;;;;;4986717;28;20083;-77
2023/05/06 06:17:54;;;;;;;;;;;13.90;86.90;;;;;;4968592;28;19925;-65
2023/05/06 06:20:21;;;;;;;;;;;13.90;86.90;;;;;;4969893;28;19933;-65
2023/05/06 06:22:48;;;;;;;;;;;14.00;86.90;;;;;;4969804;28;19938;-61
2023/05/06 06:25:15;;;;;;;;;;;14.10;86.80;;;;;;4984342;28;20021;-61
2023/05/06 06:27:42;;;;;;;;;;;14.10;86.80;;;;;;4967181;28;19930;-62
2023/05/06 06:30:09;;;;;;;;;;;14.20;86.70;;;;;;4964184;28;20265;-62
2023/05/06 06:32:38;;;;;;;;;;;14.20;86.20;;;;;;4984310;28;20360;-62
2023/05/06 06:35:05;;;;;;;;;;;14.30;85.70;;;;;;4966530;28;19930;-62
2023/05/06 06:37:32;;;;;;;;;;;14.40;85.70;;;;;;4986832;28;20288;-61
2023/05/06 06:39:59;;;;;;;;;;;14.50;85.90;;;;;;4984090;28;20274;-61
2023/05/06 06:42:25;;;;;;;;;;;14.60;85.90;;;;;;4983877;28;19937;-60
2023/05/06 06:45:18;;;;;;;;;;;14.70;85.30;;;;;;4975479;28;19934;-60
2023/05/06 06:47:47;;;;;;;;;;;14.70;85.70;;;;;;4984931;28;19930;-60
2023/05/06 06:50:13;;;;;;;;;;;14.70;85.70;;;;;;4983383;28;19977;-61
2023/05/06 06:52:40;;;;;;;;;;;14.80;85.30;;;;;;4985451;28;19981;-62
2023/05/06 06:55:07;;;;;;;;;;;14.80;85.20;;;;;;4985933;28;19960;-61
2023/05/06 06:57:35;;;;;;;;;;;14.80;85.50;;;;;;4981940;28;19977;-64
2023/05/06 07:00:01;;;;;;;;;;;15.00;84.80;;;;;;4984670;28;20455;-65
2023/05/06 07:02:28;;;;;;;;;;;14.90;85.20;;;;;;4983155;28;19932;-67
2023/05/06 07:04:56;;;;;;;;;;;14.90;84.70;;;;;;4984177;28;19982;-65
2023/05/06 07:07:23;;;;;;;;;;;15.00;84.70;;;;;;4983962;28;19968;-64
2023/05/06 07:09:50;;;;;;;;;;;15.10;85.00;;;;;;4985866;28;19936;-65
2023/05/06 07:12:20;;;;;;;;;;;15.30;85.40;;;;;;4984143;28;19933;-69
2023/05/06 07:14:47;;;;;;;;;;;15.50;85.20;;;;;;4983597;28;19926;-63
2023/05/06 07:17:13;;;;;;;;;;;15.60;84.40;;;;;;4986615;28;19930;-63
2023/05/06 07:19:40;;;;;;;;;;;15.70;84.40;;;;;;4980940;28;20302;-63
2023/05/06 07:22:08;;;;;;;;;;;15.80;84.50;;;;;;4983221;28;19988;-64
2023/05/06 07:24:35;;;;;;;;;;;16.00;84.20;;;;;;4982193;28;20434;-63
2023/05/06 07:27:03;;;;;;;;;;;16.20;83.90;;;;;;4983691;28;20075;-64
2023/05/06 07:29:29;;;;;;;;;;;16.40;83.70;;;;;;4980896;28;19970;-63
2023/05/06 07:31:56;;;;;;;;;;;16.50;83.40;;;;;;4982133;28;19929;-63
2023/05/06 07:34:23;;;;;;;;;;;16.50;82.40;;;;;;4983402;28;20037;-63
2023/05/06 07:36:49;;;;;;;;;;;16.60;83.00;;;;;;4984324;28;20405;-64
2023/05/06 07:39:18;;;;;;;;;;;16.70;82.90;;;;;;4980078;28;19925;-63
2023/05/06 07:41:44;;;;;;;;;;;16.70;82.50;;;;;;4980434;28;19952;-63
2023/05/06 07:44:11;;;;;;;;;;;16.80;82.60;;;;;;4984120;28;19937;-64
2023/05/06 07:46:38;;;;;;;;;;;17.10;81.70;;;;;;4980963;28;19973;-64
2023/05/06 07:49:04;;;;;;;;;;;17.20;81.20;;;;;;4984769;28;19961;-68
2023/05/06 07:51:31;;;;;;;;;;;17.40;80.80;;;;;;4983952;28;19926;-69
2023/05/06 07:53:58;;;;;;;;;;;17.50;80.50;;;;;;4985999;28;19934;-64
2023/05/06 07:56:26;;;;;;;;;;;17.60;78.90;;;;;;4981758;28;19937;-64
2023/05/06 07:58:53;;;;;;;;;;;17.70;78.30;;;;;;4982808;28;20024;-61
2023/05/06 08:01:20;;;;;;;;;;;17.80;78.40;;;;;;4983182;28;19936;-76
2023/05/06 08:03:47;;;;;;;;;;;17.90;77.80;;;;;;4982332;28;19927;-77
2023/05/06 08:06:13;;;;;;;;;;;18.00;77.30;;;;;;4984631;28;19938;-77
2023/05/06 08:08:40;;;;;;;;;;;18.00;76.90;;;;;;4982839;28;19933;-76
2023/05/06 08:11:07;;;;;;;;;;;18.10;76.60;;;;;;4984648;28;19930;-77
2023/05/06 08:13:35;;;;;;;;;;;18.20;75.20;;;;;;4981267;28;19930;-76
2023/05/06 08:16:01;;;;;;;;;;;18.30;74.70;;;;;;4982524;28;19933;-63
2023/05/06 08:18:28;;;;;;;;;;;18.40;75.50;;;;;;4983676;28;20414;-64
2023/05/06 08:20:55;;;;;;;;;;;18.60;73.60;;;;;;4983819;28;19957;-67
2023/05/06 08:23:22;;;;;;;;;;;18.70;73.90;;;;;;4981589;28;19929;-67
2023/05/06 08:25:48;;;;;;;;;;;18.80;74.60;;;;;;4981610;28;19934;-63
2023/05/06 08:28:15;;;;;;;;;;;19.00;74.20;;;;;;4982884;28;19965;-63
2023/05/06 08:30:46;;;;;;;;;;;19.10;73.10;;;;;;4983313;28;19930;-60
2023/05/06 08:33:13;;;;;;;;;;;19.10;71.60;;;;;;4982869;28;19957;-61
2023/05/06 08:35:39;;;;;;;;;;;19.10;71.30;;;;;;4981897;28;19934;-77
2023/05/06 08:38:06;;;;;;;;;;;19.20;71.20;;;;;;4984391;28;19926;-76
2023/05/06 08:40:33;;;;;;;;;;;19.20;71.00;;;;;;4983430;28;19926;-66
2023/05/06 08:43:02;;;;;;;;;;;19.20;70.40;;;;;;4982613;28;19926;-65
2023/05/06 08:45:29;;;;;;;;;;;19.40;69.90;;;;;;4983316;28;19926;-67
2023/05/06 08:47:57;;;;;;;;;;;19.50;68.50;;;;;;4985237;28;19934;-67
2023/05/06 08:50:25;;;;;;;;;;;19.60;68.80;;;;;;4981414;28;19929;-63
2023/05/06 08:52:52;;;;;;;;;;;19.70;68.50;;;;;;4983036;28;20009;-63
2023/05/06 08:55:19;;;;;;;;;;;19.60;67.90;;;;;;4982841;28;20020;-64
2023/05/06 08:57:45;;;;;;;;;;;19.60;67.60;;;;;;4982873;28;19933;-63
2023/05/06 09:00:13;;;;;;;;;;;19.60;67.10;;;;;;4983706;28;19933;-63
2023/05/06 09:02:41;;;;;;;;;;;19.70;67.20;;;;;;4980014;28;20016;-63
2023/05/06 09:05:10;;;;;;;;;;;19.80;67.10;;;;;;4981204;28;20016;-64
2023/05/06 09:07:36;;;;;;;;;;;19.90;66.10;;;;;;4982796;28;19945;-64
2023/05/06 09:10:05;;;;;;;;;;;20.10;65.50;;;;;;4981640;28;19926;-64
2023/05/06 09:12:34;;;;;;;;;;;20.20;65.80;;;;;;4982729;28;19989;-62
2023/05/06 09:15:00;;;;;;;;;;;20.30;65.30;;;;;;4980319;28;19933;-63
2023/05/06 09:17:31;;;;;;;;;;;20.40;65.70;;;;;;4983144;28;19930;-64
2023/05/06 09:19:58;;;;;;;;;;;20.60;65.00;;;;;;4982414;28;19951;-64
2023/05/06 09:22:27;;;;;;;;;;;20.60;64.50;;;;;;4983571;28;19926;-70
2023/05/06 09:24:56;;;;;;;;;;;20.70;64.10;;;;;;4979148;28;19934;-69
2023/05/06 09:27:23;;;;;;;;;;;20.80;64.10;;;;;;4980461;28;20016;-69
2023/05/06 09:29:59;;;;;;;;;;;20.80;63.90;;;;;;4983127;28;19941;-69
2023/05/06 09:32:26;;;;;;;;;;;20.80;62.60;;;;;;4981792;28;19937;-70
2023/05/06 09:34:53;;;;;;;;;;;21.00;62.40;;;;;;4983245;28;19937;-70
2023/05/06 09:37:20;;;;;;;;;;;21.10;62.50;;;;;;4982722;28;19929;-69
2023/05/06 09:39:48;;;;;;;;;;;21.10;62.90;;;;;;4981980;28;19937;-70
2023/05/06 09:42:16;;;;;;;;;;;21.30;61.90;;;;;;4981238;28;20216;-70
2023/05/06 09:44:43;;;;;;;;;;;21.30;61.50;;;;;;4980322;28;19930;-70
2023/05/06 09:47:10;;;;;;;;;;;21.40;60.70;;;;;;4981657;28;19926;-69
2023/05/06 09:49:37;;;;;;;;;;;21.40;60.60;;;;;;4982606;28;19925;-70
2023/05/06 09:52:06;;;;;;;;;;;21.50;59.90;;;;;;4983418;28;20293;-77
2023/05/06 09:54:33;;;;;;;;;;;21.60;59.80;;;;;;4982124;28;19930;-76
2023/05/06 09:57:02;;;;;;;;;;;21.70;59.50;;;;;;4981986;28;19929;-70
2023/05/06 09:59:29;;;;;;;;;;;21.80;59.30;;;;;;4982770;28;20444;-71
2023/05/06 10:01:57;;;;;;;;;;;21.90;58.80;;;;;;4979826;28;19973;-76
2023/05/06 10:04:25;;;;;;;;;;;21.80;58.40;;;;;;4981763;28;19962;-76
2023/05/06 10:06:53;;;;;;;;;;;22.00;58.20;;;;;;4964902;28;19930;-76
2023/05/06 10:09:21;;;;;;;;;;;22.10;57.50;;;;;;4982244;28;19933;-76
2023/05/06 10:11:48;;;;;;;;;;;22.20;57.30;;;;;;4981155;28;19926;-68
2023/05/06 10:14:16;;;;;;;;;;;22.10;57.30;;;;;;4982183;28;20301;-67
2023/05/06 10:16:43;;;;;;;;;;;22.10;57.40;;;;;;4978427;28;19926;-67
2023/05/06 10:19:10;;;;;;;;;;;22.10;56.80;;;;;;4984557;28;19933;-66
2023/05/06 10:21:39;;;;;;;;;;;22.10;55.70;;;;;;4982022;28;19972;-70
2023/05/06 10:24:07;;;;;;;;;;;22.20;56.00;;;;;;4983205;28;19933;-69
2023/05/06 10:26:36;;;;;;;;;;;22.40;56.40;;;;;;4984116;28;20020;-76
2023/05/06 10:29:04;;;;;;;;;;;22.50;56.10;;;;;;4985910;28;19926;-74
2023/05/06 10:31:32;;;;;;;;;;;22.60;56.30;;;;;;4983915;28;20459;-62
2023/05/06 10:34:00;;;;;;;;;;;22.70;55.40;;;;;;4986109;28;19956;-61
2023/05/06 10:36:30;;;;;;;;;;;22.70;54.30;;;;;;4984697;28;19957;-63
2023/05/06 10:38:59;;;;;;;;;;;22.60;54.00;;;;;;4986345;28;19929;-62
2023/05/06 10:41:27;;;;;;;;;;;22.50;53.80;;;;;;4986258;28;20041;-60
2023/05/06 10:43:56;;;;;;;;;;;22.50;53.10;;;;;;4985128;28;19958;-62
2023/05/06 10:46:24;;;;;;;;;;;22.60;53.20;;;;;;4984232;28;19926;-62
2023/05/06 10:49:10;;;;;;;;;;;22.70;54.20;;;;;;4985370;28;20681;-64
2023/05/06 10:51:42;;;;;;;;;;;22.70;53.30;;;;;;4983541;28;19926;-62
2023/05/06 10:54:10;;;;;;;;;;;22.80;53.50;;;;;;4985678;28;19929;-64
2023/05/06 10:56:37;;;;;;;;;;;22.60;54.30;;;;;;4986455;28;20585;-62
2023/05/06 10:59:07;;;;;;;;;;;22.50;53.50;;;;;;4985896;28;20828;-62
2023/05/06 11:01:34;;;;;;;;;;;22.30;53.50;;;;;;4985012;28;19940;-62
2023/05/06 11:04:05;;;;;;;;;;;22.10;53.80;;;;;;4983721;28;19972;-62
2023/05/06 11:06:33;;;;;;;;;;;22.10;54.10;;;;;;4984583;28;19933;-63
2023/05/06 11:09:03;;;;;;;;;;;22.20;55.30;;;;;;4984447;28;19937;-61
2023/05/06 11:11:50;;;;;;;;;;;22.30;54.00;;;;;;4986702;28;19926;-62
2023/05/06 11:14:27;;;;;;;;;;;22.30;54.30;;;;;;4985572;28;20293;-62
2023/05/06 11:16:55;;;;;;;;;;;22.40;53.00;;;;;;4985399;28;20388;-66
2023/05/06 11:19:23;;;;;;;;;;;22.50;53.10;;;;;;4980142;28;19961;-67
2023/05/06 11:21:50;;;;;;;;;;;22.70;52.50;;;;;;4985344;28;19929;-68
2023/05/06 11:24:23;;;;;;;;;;;22.70;52.40;;;;;;4985000;28;19940;-68
2023/05/06 11:26:50;;;;;;;;;;;22.60;52.10;;;;;;4986768;28;19926;-68
2023/05/06 11:29:17;;;;;;;;;;;22.50;51.90;;;;;;4988469;28;19932;-67
2023/05/06 11:31:44;;;;;;;;;;;22.50;51.80;;;;;;4985797;28;19933;-67
2023/05/06 11:34:12;;;;;;;;;;;22.60;51.20;;;;;;4970310;28;19930;-68
2023/05/06 11:36:46;;;;;;;;;;;22.60;51.30;;;;;;4964213;28;19972;-69
2023/05/06 11:39:13;;;;;;;;;;;22.80;51.00;;;;;;4986497;28;19996;-69
2023/05/06 11:41:41;;;;;;;;;;;22.70;51.50;;;;;;4990743;28;19932;-68
2023/05/06 11:44:10;;;;;;;;;;;22.60;51.70;;;;;;4987729;28;19930;-68
2023/05/06 11:46:37;;;;;;;;;;;22.40;52.00;;;;;;4988447;28;19926;-65
2023/05/06 11:49:04;;;;;;;;;;;22.20;52.20;;;;;;4989718;28;19937;-63
2023/05/06 11:51:31;;;;;;;;;;;22.30;51.60;;;;;;4989877;28;20046;-62
2023/05/06 11:54:05;;;;;;;;;;;22.40;51.30;;;;;;4986142;28;19933;-62
2023/05/06 11:56:44;;;;;;;;;;;22.30;49.50;;;;;;4987138;28;19932;-63
2023/05/06 11:59:11;;;;;;;;;;;22.30;47.40;;;;;;4986891;28;19926;-62
2023/05/06 12:01:38;;;;;;;;;;;22.20;47.60;;;;;;4984748;28;20376;-64
2023/05/06 12:04:05;;;;;;;;;;;22.40;48.10;;;;;;4986272;28;19926;-63
2023/05/06 12:06:35;;;;;;;;;;;22.60;47.70;;;;;;4984323;28;19971;-63
2023/05/06 12:09:02;;;;;;;;;;;22.70;48.30;;;;;;4986190;28;19941;-63
2023/05/06 12:11:29;;;;;;;;;;;22.80;48.60;;;;;;4984596;28;19965;-63
2023/05/06 12:13:58;;;;;;;;;;;22.70;48.20;;;;;;4986119;28;19984;-67
2023/05/06 12:16:25;;;;;;;;;;;22.70;48.40;;;;;;4985263;28;20012;-64
2023/05/06 12:18:53;;;;;;;;;;;22.70;49.80;;;;;;4985318;28;19989;-62
2023/05/06 12:21:23;;;;;;;;;;;22.70;49.80;;;;;;4985450;28;19934;-62
2023/05/06 12:23:51;;;;;;;;;;;22.80;50.90;;;;;;4987852;28;19934;-62
2023/05/06 12:26:18;;;;;;;;;;;22.90;50.00;;;;;;4982089;28;20409;-62
2023/05/06 12:28:45;;;;;;;;;;;22.90;49.70;;;;;;4986378;28;19937;-62
2023/05/06 12:31:20;;;;;;;;;;;23.00;49.50;;;;;;4986259;28;19930;-65
2023/05/06 12:33:48;;;;;;;;;;;23.00;48.80;;;;;;4985431;28;20009;-64
2023/05/06 12:36:14;;;;;;;;;;;23.10;49.20;;;;;;4985063;28;20025;-67
2023/05/06 12:38:49;;;;;;;;;;;23.20;49.10;;;;;;4984214;28;19942;-67
2023/05/06 12:41:16;;;;;;;;;;;23.30;50.40;;;;;;4984554;28;19926;-63
2023/05/06 12:43:43;;;;;;;;;;;23.30;50.20;;;;;;4982688;28;19932;-63
2023/05/06 12:46:11;;;;;;;;;;;23.40;50.00;;;;;;4984598;28;19929;-71
2023/05/06 12:48:39;;;;;;;;;;;23.30;50.30;;;;;;4986035;28;19929;-70
2023/05/06 12:51:18;;;;;;;;;;;23.30;50.10;;;;;;4985117;28;19965;-70
2023/05/06 12:53:45;;;;;;;;;;;23.20;48.30;;;;;;4986277;28;19926;-71
2023/05/06 12:56:12;;;;;;;;;;;23.10;47.80;;;;;;4984843;28;19926;-70
2023/05/06 12:58:39;;;;;;;;;;;23.10;50.40;;;;;;4986779;28;19937;-70
2023/05/06 13:01:06;;;;;;;;;;;23.20;47.50;;;;;;4983323;28;19961;-71
2023/05/06 13:03:33;;;;;;;;;;;23.60;46.60;;;;;;4984922;28;19930;-71
2023/05/06 13:06:01;;;;;;;;;;;23.40;46.60;;;;;;4986955;28;19930;-68
2023/05/06 13:08:28;;;;;;;;;;;23.20;48.10;;;;;;4984659;28;19937;-67
2023/05/06 13:10:55;;;;;;;;;;;23.20;47.50;;;;;;4985691;28;20068;-71
2023/05/06 13:13:21;;;;;;;;;;;23.20;47.70;;;;;;4982890;28;20016;-71
2023/05/06 13:15:48;;;;;;;;;;;23.20;47.20;;;;;;4986128;28;19930;-70
2023/05/06 13:18:15;;;;;;;;;;;23.20;48.40;;;;;;4984828;28;19932;-70
2023/05/06 13:20:42;;;;;;;;;;;23.20;47.40;;;;;;4986469;28;19927;-69
2023/05/06 13:23:10;;;;;;;;;;;23.20;46.90;;;;;;4984907;28;19934;-68
2023/05/06 13:25:37;;;;;;;;;;;23.20;46.90;;;;;;4984014;28;20270;-75
2023/05/06 13:28:03;;;;;;;;;;;23.20;46.90;;;;;;4985844;28;19926;-76
2023/05/06 13:30:31;;;;;;;;;;;23.10;46.30;;;;;;4985613;28;19926;-75
2023/05/06 13:32:57;;;;;;;;;;;23.10;46.90;;;;;;4985813;28;20309;-75
2023/05/06 13:35:25;;;;;;;;;;;22.90;48.20;;;;;;4981141;28;19932;-75
2023/05/06 13:37:51;;;;;;;;;;;22.70;47.50;;;;;;4982347;28;20293;-76
2023/05/06 13:40:20;;;;;;;;;;;22.60;47.90;;;;;;4985051;28;19989;-76
2023/05/06 13:42:46;;;;;;;;;;;22.60;48.00;;;;;;4984917;28;20291;-76
2023/05/06 13:45:13;;;;;;;;;;;22.60;48.10;;;;;;4980220;28;19934;-64
2023/05/06 13:47:41;;;;;;;;;;;22.60;48.80;;;;;;4980746;28;19926;-63
2023/05/06 13:50:08;;;;;;;;;;;22.70;49.40;;;;;;4985150;28;19981;-62
2023/05/06 13:52:35;;;;;;;;;;;22.70;48.50;;;;;;4983809;28;19926;-63
2023/05/06 13:55:02;;;;;;;;;;;22.60;48.30;;;;;;4985818;28;19934;-63
2023/05/06 13:57:30;;;;;;;;;;;22.50;48.10;;;;;;4979426;28;20712;-63
2023/05/06 13:59:57;;;;;;;;;;;22.40;48.20;;;;;;4985094;28;19926;-64
2023/05/06 14:02:23;;;;;;;;;;;22.40;48.40;;;;;;4989805;28;19926;-67
2023/05/06 14:04:50;;;;;;;;;;;22.40;48.50;;;;;;4988374;28;19926;-66
2023/05/06 14:07:17;;;;;;;;;;;22.50;48.20;;;;;;4989862;28;19926;-67
2023/05/06 14:09:44;;;;;;;;;;;22.50;48.10;;;;;;4988097;28;19931;-67
2023/05/06 14:12:10;;;;;;;;;;;22.60;50.10;;;;;;4985117;28;19930;-68
2023/05/06 14:14:38;;;;;;;;;;;22.60;47.60;;;;;;4989049;28;19925;-68
2023/05/06 14:17:05;;;;;;;;;;;22.50;47.50;;;;;;4986554;28;20385;-67
2023/05/06 14:19:32;;;;;;;;;;;22.40;47.00;;;;;;4987316;28;19930;-68